createdAt,value
2018-07-31T00:00:18.350Z,83.36
2018-07-31T00:02:48.550Z,82.94
2018-07-31T00:05:18.850Z,82.40
2018-07-31T00:07:49.099Z,82.09
2018-07-31T00:10:18.991Z,82.31
2018-07-31T00:12:48.598Z,81.48
2018-07-31T00:15:24.887Z,81.93
2018-07-31T00:17:54.631Z,83.94
2018-07-31T00:20:24.403Z,84.07
2018-07-31T00:22:54.155Z,83.82
2018-07-31T00:25:24.250Z,83.08
2018-07-31T00:27:53.944Z,82.45
2018-07-31T00:30:23.872Z,82.22
2018-07-31T00:32:53.608Z,82.05
2018-07-31T00:35:23.318Z,82.42
2018-07-31T00:37:52.942Z,82.47
2018-07-31T00:40:22.703Z,82.39
2018-07-31T00:42:52.609Z,81.98
2018-07-31T00:45:22.293Z,81.92
2018-07-31T00:47:52.418Z,82.18
2018-07-31T00:50:22.061Z,82.34
2018-07-31T00:52:52.225Z,81.80
2018-07-31T00:55:22.185Z,81.43
2018-07-31T00:57:52.203Z,81.40
2018-07-31T01:00:21.778Z,81.07
2018-07-31T01:02:51.642Z,81.12
2018-07-31T01:05:21.230Z,80.77
2018-07-31T01:07:50.809Z,80.69
2018-07-31T01:10:21.019Z,80.36
2018-07-31T01:12:50.971Z,80.39
2018-07-31T01:15:20.794Z,79.77
2018-07-31T01:17:50.658Z,79.75
2018-07-31T01:20:20.432Z,79.49
2018-07-31T01:22:50.866Z,79.20
2018-07-31T01:25:20.990Z,79.34
2018-07-31T01:27:50.988Z,79.39
2018-07-31T01:30:20.895Z,79.78
2018-07-31T01:32:50.644Z,80.01
2018-07-31T01:35:20.564Z,79.96
2018-07-31T01:37:50.238Z,80.13
2018-07-31T01:40:19.808Z,79.98
2018-07-31T01:42:49.717Z,79.88
2018-07-31T01:45:19.530Z,79.16
2018-07-31T01:47:50.037Z,78.95
2018-07-31T01:50:20.774Z,79.17
2018-07-31T01:52:50.466Z,78.52
2018-07-31T01:55:20.803Z,78.27
2018-07-31T01:57:50.382Z,78.51
2018-07-31T02:00:20.334Z,78.12
2018-07-31T02:02:50.659Z,78.39
2018-07-31T02:05:20.344Z,79.12
2018-07-31T02:07:49.980Z,79.23
2018-07-31T02:10:20.023Z,78.72
2018-07-31T02:12:49.667Z,78.87
2018-07-31T02:15:19.397Z,78.62
2018-07-31T02:17:49.298Z,79.23
2018-07-31T02:20:19.132Z,79.43
2018-07-31T02:22:49.578Z,79.62
2018-07-31T02:25:19.164Z,79.03
2018-07-31T02:27:49.026Z,79.65
2018-07-31T02:30:22.722Z,79.45
2018-07-31T02:32:52.967Z,79.10
2018-07-31T02:35:22.720Z,78.32
2018-07-31T02:37:52.449Z,78.52
2018-07-31T02:40:22.557Z,79.39
2018-07-31T02:42:52.049Z,79.14
2018-07-31T02:45:21.971Z,78.89
2018-07-31T02:47:51.539Z,78.68
2018-07-31T02:50:21.442Z,78.61
2018-07-31T02:52:51.302Z,78.49
2018-07-31T02:55:21.414Z,78.69
2018-07-31T02:57:51.667Z,78.11
2018-07-31T03:00:21.307Z,77.88
2018-07-31T03:02:51.035Z,77.96
2018-07-31T03:05:20.671Z,77.79
2018-07-31T03:07:50.626Z,78.29
2018-07-31T03:10:20.326Z,77.93
2018-07-31T03:12:50.324Z,77.66
2018-07-31T03:15:20.388Z,77.78
2018-07-31T03:17:49.995Z,77.85
2018-07-31T03:20:19.661Z,77.58
2018-07-31T03:22:49.658Z,78.16
2018-07-31T03:25:19.290Z,79.21
2018-07-31T03:27:49.638Z,81.06
2018-07-31T03:30:19.831Z,81.93
2018-07-31T03:32:49.652Z,82.61
2018-07-31T03:35:19.504Z,82.57
2018-07-31T03:37:49.267Z,82.52
2018-07-31T03:40:19.234Z,82.41
2018-07-31T03:42:49.020Z,81.76
2018-07-31T03:45:18.922Z,81.50
2018-07-31T03:47:48.827Z,82.53
2018-07-31T03:50:18.418Z,82.69
2018-07-31T03:52:47.950Z,82.29
2018-07-31T03:55:17.566Z,82.31
2018-07-31T03:57:48.006Z,81.74
2018-07-31T04:00:17.943Z,81.78
2018-07-31T04:02:48.074Z,82.18
2018-07-31T04:05:18.108Z,81.45
2018-07-31T04:07:48.208Z,80.91
2018-07-31T04:10:18.176Z,80.26
2018-07-31T04:12:48.039Z,80.53
2018-07-31T04:15:17.950Z,80.35
2018-07-31T04:17:52.949Z,80.21
2018-07-31T04:20:22.805Z,80.87
2018-07-31T04:22:52.848Z,81.25
2018-07-31T04:25:22.852Z,81.00
2018-07-31T04:27:52.347Z,81.08
2018-07-31T04:30:22.205Z,80.70
2018-07-31T04:32:52.063Z,80.90
2018-07-31T04:35:21.626Z,80.16
2018-07-31T04:37:51.401Z,79.76
2018-07-31T04:40:21.267Z,78.78
2018-07-31T04:42:50.875Z,78.64
2018-07-31T04:45:20.973Z,78.20
2018-07-31T04:47:50.904Z,78.17
2018-07-31T04:50:21.256Z,78.24
2018-07-31T04:52:51.249Z,78.33
2018-07-31T04:55:20.819Z,77.87
2018-07-31T04:57:50.820Z,77.42
2018-07-31T05:00:20.420Z,77.25
2018-07-31T05:02:50.195Z,76.57
2018-07-31T05:05:20.128Z,76.64
2018-07-31T05:07:49.929Z,75.81
2018-07-31T05:10:19.907Z,75.22
2018-07-31T05:12:50.074Z,74.48
2018-07-31T05:15:19.627Z,74.46
2018-07-31T05:17:49.471Z,74.33
2018-07-31T05:20:19.922Z,74.35
2018-07-31T05:22:49.603Z,73.87
2018-07-31T05:25:19.598Z,73.07
2018-07-31T05:27:49.475Z,71.46
2018-07-31T05:30:19.148Z,72.30
2018-07-31T05:32:48.921Z,72.76
2018-07-31T05:35:19.055Z,73.95
2018-07-31T05:37:49.306Z,73.54
2018-07-31T05:40:19.300Z,73.45
2018-07-31T05:42:48.997Z,71.87
2018-07-31T05:45:18.866Z,71.55
2018-07-31T05:47:48.477Z,75.83
2018-07-31T05:50:18.138Z,79.04
2018-07-31T05:52:47.987Z,79.65
2018-07-31T05:55:17.977Z,80.85
2018-07-31T05:57:48.040Z,80.49
2018-07-31T06:00:17.933Z,80.51
2018-07-31T06:02:47.679Z,79.45
2018-07-31T06:05:17.409Z,79.60
2018-07-31T06:07:47.065Z,80.92
2018-07-31T06:10:17.125Z,80.78
2018-07-31T06:12:47.485Z,79.79
2018-07-31T06:15:17.172Z,80.62
2018-07-31T06:17:47.038Z,80.39
2018-07-31T06:20:18.076Z,79.56
2018-07-31T06:22:48.517Z,78.78
2018-07-31T06:25:18.233Z,80.61
2018-07-31T06:27:48.022Z,78.21
2018-07-31T06:30:17.608Z,76.45
2018-07-31T06:32:47.501Z,77.55
2018-07-31T06:35:17.639Z,78.15
2018-07-31T06:37:47.234Z,77.34
2018-07-31T06:40:17.146Z,75.68
2018-07-31T06:42:47.135Z,77.34
2018-07-31T06:45:17.026Z,76.38
2018-07-31T06:47:47.081Z,75.81
2018-07-31T06:50:16.867Z,74.48
2018-07-31T06:52:47.022Z,73.86
2018-07-31T06:55:16.814Z,72.81
2018-07-31T06:57:46.838Z,69.61
2018-07-31T07:00:16.745Z,70.08
2018-07-31T07:02:46.902Z,69.51
2018-07-31T07:05:16.780Z,68.18
2018-07-31T07:07:46.772Z,68.00
2018-07-31T07:10:16.813Z,67.47
2018-07-31T07:12:46.458Z,66.95
2018-07-31T07:15:16.087Z,65.07
2018-07-31T07:17:46.148Z,63.95
2018-07-31T07:20:15.912Z,62.05
2018-07-31T07:22:46.095Z,62.45
2018-07-31T07:25:16.121Z,61.00
2018-07-31T07:27:46.229Z,61.16
2018-07-31T07:30:15.938Z,58.98
2018-07-31T07:32:45.540Z,59.36
2018-07-31T07:35:15.679Z,58.39
2018-07-31T07:37:45.262Z,58.23
2018-07-31T07:40:14.897Z,56.39
2018-07-31T07:42:44.433Z,56.00
2018-07-31T07:45:14.043Z,54.59
2018-07-31T07:47:43.627Z,54.28
2018-07-31T07:50:13.498Z,54.77
2018-07-31T07:52:43.874Z,52.79
2018-07-31T07:55:13.764Z,54.27
2018-07-31T07:57:44.028Z,54.25
2018-07-31T08:00:14.000Z,52.76
2018-07-31T08:02:43.711Z,51.05
2018-07-31T08:05:13.614Z,51.81
2018-07-31T08:07:43.619Z,51.87
2018-07-31T08:10:13.667Z,52.31
2018-07-31T08:12:44.153Z,51.08
2018-07-31T08:15:13.751Z,50.65
2018-07-31T08:17:43.403Z,51.33
2018-07-31T08:20:13.463Z,51.47
2018-07-31T08:22:43.249Z,52.11
2018-07-31T08:25:13.163Z,51.46
2018-07-31T08:27:43.220Z,50.68
2018-07-31T08:30:12.978Z,49.20
2018-07-31T08:32:42.808Z,49.68
2018-07-31T08:35:12.594Z,50.07
2018-07-31T08:37:42.304Z,48.07
2018-07-31T08:40:12.115Z,46.92
2018-07-31T08:42:41.953Z,46.98
2018-07-31T08:45:12.018Z,47.06
2018-07-31T08:47:42.038Z,47.98
2018-07-31T08:50:11.584Z,46.08
2018-07-31T08:52:41.294Z,46.64
2018-07-31T08:55:10.899Z,46.37
2018-07-31T08:57:41.305Z,46.12
2018-07-31T09:00:11.638Z,45.78
2018-07-31T09:02:41.932Z,45.26
2018-07-31T09:05:11.714Z,44.44
2018-07-31T09:07:41.266Z,44.61
2018-07-31T09:10:13.171Z,44.87
2018-07-31T09:12:42.919Z,46.13
2018-07-31T09:15:12.794Z,45.80
2018-07-31T09:17:42.627Z,46.35
2018-07-31T09:20:12.423Z,46.91
2018-07-31T09:22:42.209Z,47.27
2018-07-31T09:25:11.795Z,47.48
2018-07-31T09:27:41.490Z,47.85
2018-07-31T09:30:11.395Z,47.21
2018-07-31T09:32:46.170Z,46.92
2018-07-31T09:35:15.863Z,46.93
2018-07-31T09:37:45.735Z,48.06
2018-07-31T09:40:15.543Z,47.74
2018-07-31T09:42:45.470Z,48.91
2018-07-31T09:45:15.270Z,47.47
2018-07-31T09:47:45.131Z,48.57
2018-07-31T09:50:14.857Z,48.94
2018-07-31T09:52:44.844Z,48.48
2018-07-31T09:55:14.410Z,47.54
2018-07-31T09:57:43.983Z,47.29
2018-07-31T10:00:17.878Z,45.81
2018-07-31T10:02:47.484Z,45.90
2018-07-31T10:05:17.273Z,44.27
2018-07-31T10:07:46.951Z,42.55
2018-07-31T10:10:16.793Z,43.52
2018-07-31T10:12:46.861Z,42.49
2018-07-31T10:15:16.526Z,42.48
2018-07-31T10:17:46.423Z,42.90
2018-07-31T10:20:16.491Z,42.44
2018-07-31T10:22:46.624Z,43.20
2018-07-31T10:25:16.273Z,43.36
2018-07-31T10:27:46.132Z,42.84
2018-07-31T10:30:15.705Z,43.92
2018-07-31T10:32:45.202Z,44.50
2018-07-31T10:35:14.862Z,42.92
2018-07-31T10:37:44.638Z,41.51
2018-07-31T10:40:14.870Z,39.92
2018-07-31T10:42:44.467Z,39.03
2018-07-31T10:45:14.498Z,38.14
2018-07-31T10:47:44.510Z,37.00
2018-07-31T10:50:14.535Z,35.39
2018-07-31T10:52:44.374Z,35.06
2018-07-31T10:55:15.376Z,35.36
2018-07-31T10:57:47.040Z,33.66
2018-07-31T11:00:17.245Z,33.47
2018-07-31T11:02:47.287Z,32.93
2018-07-31T11:05:16.961Z,33.74
2018-07-31T11:07:46.690Z,33.67
2018-07-31T11:10:16.298Z,34.46
2018-07-31T11:12:46.108Z,35.17
2018-07-31T11:15:16.061Z,34.90
2018-07-31T11:17:45.821Z,35.88
2018-07-31T11:20:16.017Z,35.23
2018-07-31T11:22:47.132Z,36.17
2018-07-31T11:25:17.666Z,35.69
2018-07-31T11:27:47.325Z,36.92
2018-07-31T11:30:17.358Z,36.92
2018-07-31T11:32:47.964Z,36.41
2018-07-31T11:35:18.023Z,34.51
2018-07-31T11:37:47.702Z,35.20
2018-07-31T11:40:17.274Z,34.69
2018-07-31T11:42:47.007Z,35.13
2018-07-31T11:45:16.854Z,33.02
2018-07-31T11:47:46.881Z,32.75
2018-07-31T11:50:16.980Z,31.36
2018-07-31T11:52:47.244Z,32.25
2018-07-31T11:55:16.873Z,32.25
2018-07-31T11:57:46.654Z,32.41
2018-07-31T12:00:16.599Z,32.14
2018-07-31T12:02:46.639Z,31.42
2018-07-31T12:05:16.470Z,30.89
2018-07-31T12:07:46.214Z,30.02
2018-07-31T12:10:15.780Z,30.23
2018-07-31T12:12:45.526Z,30.45
2018-07-31T12:15:15.083Z,29.25
2018-07-31T12:17:44.977Z,30.51
2018-07-31T12:20:14.971Z,30.11
2018-07-31T12:22:44.920Z,30.02
2018-07-31T12:25:14.492Z,29.57
2018-07-31T12:27:44.305Z,29.07
2018-07-31T12:30:14.365Z,28.57
2018-07-31T12:32:44.334Z,28.24
2018-07-31T12:35:14.300Z,28.46
2018-07-31T12:37:43.855Z,27.37
2018-07-31T12:40:13.711Z,27.74
2018-07-31T12:42:43.334Z,29.27
2018-07-31T12:45:13.078Z,30.24
2018-07-31T12:47:42.678Z,30.71
2018-07-31T12:50:12.472Z,31.88
2018-07-31T12:52:42.149Z,33.51
2018-07-31T12:55:11.986Z,34.17
2018-07-31T12:57:42.007Z,37.68
2018-07-31T13:00:11.889Z,39.24
2018-07-31T13:02:41.822Z,44.00
2018-07-31T13:05:11.472Z,47.62
2018-07-31T13:07:41.457Z,49.38
2018-07-31T13:10:11.386Z,52.23
2018-07-31T13:12:41.342Z,50.96
2018-07-31T13:15:11.197Z,50.89
2018-07-31T13:17:41.336Z,52.11
2018-07-31T13:20:10.928Z,52.45
2018-07-31T13:22:41.171Z,48.61
2018-07-31T13:25:11.317Z,49.74
2018-07-31T13:27:41.227Z,51.35
2018-07-31T13:30:11.046Z,53.96
2018-07-31T13:32:40.726Z,53.98
2018-07-31T13:35:11.325Z,54.86
2018-07-31T13:37:41.261Z,54.39
2018-07-31T13:40:11.311Z,55.25
2018-07-31T13:42:41.577Z,55.56
2018-07-31T13:45:11.495Z,54.64
2018-07-31T13:47:41.382Z,53.99
2018-07-31T13:50:11.104Z,54.56
2018-07-31T13:52:40.758Z,52.22
2018-07-31T13:55:10.435Z,54.05
2018-07-31T13:57:40.700Z,52.72
2018-07-31T14:00:10.422Z,51.68
2018-07-31T14:02:40.287Z,52.05
2018-07-31T14:05:10.206Z,52.63
2018-07-31T14:07:40.168Z,52.13
2018-07-31T14:10:10.145Z,51.84
2018-07-31T14:12:39.927Z,51.01
2018-07-31T14:15:09.899Z,50.40
2018-07-31T14:17:39.602Z,51.16
2018-07-31T14:20:09.642Z,52.28
2018-07-31T14:22:39.156Z,50.55
2018-07-31T14:25:08.704Z,51.07
2018-07-31T14:27:38.420Z,53.01
2018-07-31T14:30:08.167Z,54.06
2018-07-31T14:32:38.117Z,54.22
2018-07-31T14:35:08.150Z,55.17
2018-07-31T14:37:37.947Z,54.58
2018-07-31T14:40:07.810Z,55.49
2018-07-31T14:42:37.374Z,56.81
2018-07-31T14:45:07.336Z,57.10
2018-07-31T14:47:37.437Z,57.87
2018-07-31T14:50:07.443Z,58.07
2018-07-31T14:52:37.458Z,59.87
2018-07-31T14:55:07.480Z,58.63
2018-07-31T14:57:37.218Z,59.95
2018-07-31T15:00:07.291Z,59.31
2018-07-31T15:02:36.982Z,61.18
2018-07-31T15:05:07.233Z,60.57
2018-07-31T15:07:37.269Z,62.07
2018-07-31T15:10:09.469Z,61.19
2018-07-31T15:12:39.436Z,61.89
2018-07-31T15:15:09.480Z,61.38
2018-07-31T15:17:39.330Z,63.61
2018-07-31T15:20:09.042Z,62.83
2018-07-31T15:22:38.867Z,63.90
2018-07-31T15:25:08.760Z,64.83
2018-07-31T15:27:38.487Z,63.33
2018-07-31T15:30:08.186Z,63.59
2018-07-31T15:32:37.894Z,64.38
2018-07-31T15:35:07.858Z,65.88
2018-07-31T15:37:37.696Z,67.23
2018-07-31T15:40:07.864Z,66.94
2018-07-31T15:42:37.655Z,64.09
2018-07-31T15:45:07.522Z,67.68
2018-07-31T15:47:37.380Z,62.11
2018-07-31T15:50:07.666Z,60.04
2018-07-31T15:52:37.635Z,60.67
2018-07-31T15:55:07.506Z,57.04
2018-07-31T15:57:37.423Z,56.26
2018-07-31T16:00:09.473Z,52.35
2018-07-31T16:02:39.413Z,51.05
2018-07-31T16:05:09.750Z,48.33
2018-07-31T16:07:39.526Z,48.56
2018-07-31T16:10:09.108Z,47.46
2018-07-31T16:12:39.171Z,47.50
2018-07-31T16:15:09.142Z,45.90
2018-07-31T16:17:39.201Z,47.05
2018-07-31T16:20:09.010Z,47.90
2018-07-31T16:22:38.826Z,45.58
2018-07-31T16:25:08.830Z,43.73
2018-07-31T16:27:39.119Z,40.92
2018-07-31T16:30:08.990Z,37.78
2018-07-31T16:32:38.805Z,37.08
2018-07-31T16:35:08.542Z,37.14
2018-07-31T16:37:38.275Z,36.39
2018-07-31T16:40:09.677Z,36.44
2018-07-31T16:42:39.522Z,36.51
2018-07-31T16:45:09.534Z,35.21
2018-07-31T16:47:39.220Z,35.96
2018-07-31T16:50:09.332Z,35.18
2018-07-31T16:52:39.158Z,34.68
2018-07-31T16:55:09.075Z,34.13
2018-07-31T16:57:38.867Z,33.65
2018-07-31T17:00:08.947Z,32.51
2018-07-31T17:02:38.654Z,33.29
2018-07-31T17:05:08.338Z,34.37
2018-07-31T17:07:37.956Z,33.99
2018-07-31T17:10:07.713Z,34.00
2018-07-31T17:12:37.707Z,34.22
2018-07-31T17:15:08.338Z,33.69
2018-07-31T17:17:38.200Z,33.21
2018-07-31T17:20:08.106Z,32.71
2018-07-31T17:22:37.871Z,33.15
2018-07-31T17:25:07.863Z,33.26
2018-07-31T17:27:37.715Z,35.61
2018-07-31T17:30:07.424Z,35.70
2018-07-31T17:32:37.522Z,37.54
2018-07-31T17:35:07.195Z,38.20
2018-07-31T17:37:36.922Z,38.42
2018-07-31T17:40:06.733Z,39.97
2018-07-31T17:42:36.442Z,41.84
2018-07-31T17:45:07.026Z,43.61
2018-07-31T17:47:37.185Z,45.58
2018-07-31T17:50:07.069Z,47.10
2018-07-31T17:52:37.037Z,48.42
2018-07-31T17:55:07.207Z,48.95
2018-07-31T17:57:37.173Z,50.77
2018-07-31T18:00:07.173Z,50.57
2018-07-31T18:02:37.122Z,51.73
2018-07-31T18:05:07.057Z,51.22
2018-07-31T18:07:36.787Z,52.72
2018-07-31T18:10:06.415Z,54.32
2018-07-31T18:12:36.124Z,55.82
2018-07-31T18:15:05.730Z,58.01
2018-07-31T18:17:35.822Z,58.81
2018-07-31T18:20:05.992Z,60.35
2018-07-31T18:22:35.651Z,61.42
2018-07-31T18:25:05.634Z,61.92
2018-07-31T18:27:35.821Z,63.29
2018-07-31T18:30:06.249Z,63.00
2018-07-31T18:32:36.745Z,65.67
2018-07-31T18:35:06.831Z,66.44
2018-07-31T18:37:36.755Z,67.81
2018-07-31T18:40:07.015Z,68.03
2018-07-31T18:42:36.618Z,69.07
2018-07-31T18:45:06.325Z,69.95
2018-07-31T18:47:35.961Z,70.72
2018-07-31T18:50:06.219Z,71.45
2018-07-31T18:52:36.039Z,72.39
2018-07-31T18:55:05.900Z,71.48
2018-07-31T18:57:35.645Z,72.41
2018-07-31T19:00:06.147Z,72.78
2018-07-31T19:02:36.003Z,71.88
2018-07-31T19:05:06.097Z,72.61
2018-07-31T19:07:35.862Z,72.41
2018-07-31T19:10:05.997Z,73.05
2018-07-31T19:12:35.978Z,72.82
2018-07-31T19:15:06.072Z,72.80
2018-07-31T19:17:35.790Z,74.24
2018-07-31T19:20:06.204Z,74.09
2018-07-31T19:22:36.186Z,74.77
2018-07-31T19:25:06.211Z,76.25
2018-07-31T19:27:35.997Z,76.18
2018-07-31T19:30:06.379Z,76.83
2018-07-31T19:32:36.282Z,76.35
2018-07-31T19:35:05.931Z,76.19
2018-07-31T19:37:35.809Z,76.67
2018-07-31T19:40:05.860Z,77.17
2018-07-31T19:42:35.710Z,77.51
2018-07-31T19:45:06.210Z,77.03
2018-07-31T19:47:35.890Z,77.15
2018-07-31T19:50:05.834Z,77.73
2018-07-31T19:52:35.587Z,77.24
2018-07-31T19:55:05.124Z,77.36
2018-07-31T19:57:34.806Z,77.05
2018-07-31T20:00:04.870Z,77.20
2018-07-31T20:02:34.682Z,77.08
2018-07-31T20:05:05.035Z,76.61
2018-07-31T20:07:34.771Z,76.50
2018-07-31T20:10:05.059Z,76.54
2018-07-31T20:12:34.976Z,76.84
2018-07-31T20:15:04.862Z,77.88
2018-07-31T20:17:34.847Z,78.10
2018-07-31T20:20:04.765Z,78.50
2018-07-31T20:22:34.555Z,78.40
2018-07-31T20:25:04.335Z,78.11
2018-07-31T20:27:34.022Z,78.47
2018-07-31T20:30:03.786Z,78.61
2018-07-31T20:32:33.852Z,77.78
2018-07-31T20:35:03.700Z,78.38
2018-07-31T20:37:33.962Z,78.88
2018-07-31T20:40:04.166Z,79.52
2018-07-31T20:42:33.919Z,79.06
2018-07-31T20:45:03.789Z,79.02
2018-07-31T20:47:33.789Z,79.43
2018-07-31T20:50:03.901Z,79.25
2018-07-31T20:52:33.883Z,79.02
2018-07-31T20:55:03.761Z,79.06
2018-07-31T20:57:33.391Z,80.09
2018-07-31T21:00:03.175Z,81.20
2018-07-31T21:02:32.804Z,81.55
2018-07-31T21:05:02.861Z,81.40
2018-07-31T21:07:32.495Z,80.98
2018-07-31T21:10:02.401Z,80.28
2018-07-31T21:12:32.126Z,79.73
2018-07-31T21:15:01.994Z,79.80
2018-07-31T21:17:31.658Z,80.70
2018-07-31T21:20:01.515Z,81.14
2018-07-31T21:22:31.326Z,80.98
2018-07-31T21:25:01.093Z,80.99
2018-07-31T21:27:31.103Z,81.88
2018-07-31T21:30:00.717Z,81.93
2018-07-31T21:32:30.478Z,81.78
2018-07-31T21:35:00.097Z,81.37
2018-07-31T21:37:29.753Z,81.22
2018-07-31T21:39:59.721Z,80.92
2018-07-31T21:42:29.517Z,80.73
2018-07-31T21:44:59.385Z,80.45
2018-07-31T21:47:29.182Z,79.81
2018-07-31T21:49:59.007Z,79.73
2018-07-31T21:52:28.733Z,80.39
2018-07-31T21:54:58.611Z,81.58
2018-07-31T21:57:28.330Z,81.92
2018-07-31T21:59:58.023Z,81.98
2018-07-31T22:02:27.831Z,82.37
2018-07-31T22:04:57.734Z,82.53
2018-07-31T22:07:27.723Z,82.60
2018-07-31T22:09:57.455Z,81.94
2018-07-31T22:12:27.026Z,82.42
2018-07-31T22:14:56.919Z,82.65
2018-07-31T22:17:26.578Z,83.09
2018-07-31T22:19:56.428Z,83.44
2018-07-31T22:22:26.426Z,84.58
2018-07-31T22:24:56.641Z,85.14
2018-07-31T22:27:26.423Z,84.94
2018-07-31T22:29:56.274Z,84.55
2018-07-31T22:32:26.078Z,84.22
2018-07-31T22:34:55.975Z,84.14
2018-07-31T22:37:25.940Z,83.98
2018-07-31T22:39:55.835Z,84.63
2018-07-31T22:42:25.414Z,84.84
2018-07-31T22:44:55.229Z,85.41
2018-07-31T22:47:25.179Z,84.61
2018-07-31T22:49:54.998Z,84.73
2018-07-31T22:52:24.932Z,85.25
2018-07-31T22:54:54.769Z,84.66
2018-07-31T22:57:24.448Z,84.03
2018-07-31T22:59:54.107Z,83.81
2018-07-31T23:02:23.947Z,83.81
2018-07-31T23:04:53.631Z,83.31
2018-07-31T23:07:23.509Z,83.74
2018-07-31T23:09:58.442Z,83.85
2018-07-31T23:12:28.232Z,84.17
2018-07-31T23:14:58.027Z,83.03
2018-07-31T23:17:28.042Z,83.23
2018-07-31T23:19:58.722Z,84.26
2018-07-31T23:22:39.621Z,84.51
2018-07-31T23:25:09.869Z,84.22
2018-07-31T23:27:39.797Z,83.96
2018-07-31T23:30:10.100Z,83.58
2018-07-31T23:32:40.459Z,83.28
2018-07-31T23:35:10.270Z,83.26
2018-07-31T23:37:40.081Z,83.03
2018-07-31T23:40:09.859Z,82.46
2018-07-31T23:42:39.682Z,82.24
2018-07-31T23:45:09.475Z,81.97
2018-07-31T23:47:39.128Z,80.46
2018-07-31T23:50:08.828Z,80.73
2018-07-31T23:52:38.558Z,81.01
2018-07-31T23:55:08.276Z,81.24
2018-07-31T23:57:37.976Z,81.39
